Time;durP1;ratioP1;P1;durP2;ratioP2;P2;SDS_P1;SDS_P2;PMS_P1;PMS_P2;Temp;Humidity;BMP_temperature;BMP_pressure;BME280_temperature;BME280_humidity;BME280_pressure;Samples;Min_cycle;Max_cycle;Signal;HPM_P1;HPM_P2
2022/05/30 00:02:04;;;;;;;3.00;1.27;;;;;;;9.46;61.55;100268.63;6133751;23;20016;-75
2022/05/30 00:04:29;;;;;;;2.28;1.00;;;;;;;9.39;62.08;100257.88;6108852;23;20104;-75
2022/05/30 00:06:55;;;;;;;3.92;1.02;;;;;;;9.39;61.98;100254.28;6158425;23;20016;-75
2022/05/30 00:09:20;;;;;;;5.00;1.10;;;;;;;9.39;62.28;100251.50;6157719;23;20006;-75
2022/05/30 00:11:48;;;;;;;4.22;1.10;;;;;;;9.29;62.59;100240.53;6133492;23;20009;-75
2022/05/30 00:14:13;;;;;;;1.60;0.80;;;;;;;9.25;62.73;100244.97;6157964;23;20009;-75
2022/05/30 00:16:39;;;;;;;1.65;1.02;;;;;;;9.24;62.96;100248.88;6159794;23;20012;-75
2022/05/30 00:19:05;;;;;;;2.72;1.20;;;;;;;9.18;63.10;100237.84;6133399;23;20013;-75
2022/05/30 00:21:30;;;;;;;5.05;1.25;;;;;;;9.17;63.17;100244.50;6084721;23;20010;-75
2022/05/30 00:23:56;;;;;;;3.92;1.30;;;;;;;9.18;63.47;100240.59;6084947;23;20584;-75
2022/05/30 00:26:22;;;;;;;3.13;1.02;;;;;;;9.18;64.44;100239.78;6157928;23;20006;-75
2022/05/30 00:28:47;;;;;;;4.38;1.17;;;;;;;9.13;64.20;100237.88;6157823;23;20091;-75
2022/05/30 00:31:14;;;;;;;4.45;1.00;;;;;;;9.14;64.13;100239.56;6133347;23;20068;-75
2022/05/30 00:33:40;;;;;;;2.28;1.10;;;;;;;9.10;63.53;100232.91;6157973;23;20118;-75
2022/05/30 00:36:06;;;;;;;2.45;0.90;;;;;;;9.12;63.32;100232.66;6157722;23;20080;-75
2022/05/30 00:38:31;;;;;;;2.60;1.05;;;;;;;9.05;63.42;100235.72;6159132;23;20005;-75
2022/05/30 00:40:57;;;;;;;1.65;1.00;;;;;;;9.01;63.67;100226.38;6133278;23;20017;-75
2022/05/30 00:43:28;;;;;;;4.57;1.13;;;;;;;8.98;64.12;100226.94;6157938;23;20013;-75
2022/05/30 00:45:55;;;;;;;3.00;1.20;;;;;;;9.00;64.66;100226.63;6158130;23;20040;-75
2022/05/30 00:48:23;;;;;;;3.28;1.15;;;;;;;8.97;64.09;100214.22;6157639;23;20089;-75
2022/05/30 00:50:49;;;;;;;5.45;1.10;;;;;;;8.92;63.41;100219.81;6133233;23;20048;-75
2022/05/30 00:53:15;;;;;;;3.70;1.20;;;;;;;8.90;63.36;100219.25;6132908;23;20010;-75
2022/05/30 00:55:41;;;;;;;4.13;1.20;;;;;;;8.95;63.75;100216.44;6157654;23;20032;-75
2022/05/30 00:58:07;;;;;;;1.98;0.90;;;;;;;8.84;63.62;100217.66;6133444;23;20009;-75
2022/05/30 01:00:33;;;;;;;1.58;1.05;;;;;;;8.84;63.99;100212.13;6132859;23;20016;-75
2022/05/30 01:08:28;;;;;;;3.25;0.95;;;;;;;8.70;64.53;100211.94;6136706;23;20064;-75
2022/05/30 01:10:53;;;;;;;2.90;1.20;;;;;;;8.69;64.58;100211.13;6133165;23;20011;-75
2022/05/30 01:13:19;;;;;;;1.52;1.02;;;;;;;8.67;64.51;100207.81;6133077;23;20014;-75
2022/05/30 01:15:44;;;;;;;2.83;1.23;;;;;;;8.62;64.80;100205.09;6132907;23;20012;-75
2022/05/30 01:18:34;;;;;;;3.42;1.05;;;;;;;8.61;64.42;100203.44;6108499;23;20013;-75
2022/05/30 01:21:29;;;;;;;2.90;1.20;;;;;;;8.62;64.97;100204.25;6108798;23;20339;-75
2022/05/30 01:24:23;;;;;;;5.07;1.15;;;;;;;8.54;64.75;100208.47;6132738;23;20009;-75
2022/05/30 01:27:04;;;;;;;2.22;0.95;;;;;;;8.47;65.12;100208.81;6132793;23;20092;-75
2022/05/30 01:29:35;;;;;;;4.15;1.10;;;;;;;8.48;65.04;100209.63;6157725;23;20021;-75
2022/05/30 01:32:00;;;;;;;3.42;1.10;;;;;;;8.43;65.54;100217.94;6135989;23;20006;-75
2022/05/30 01:34:26;;;;;;;4.07;1.20;;;;;;;8.42;66.42;100208.00;6160906;23;20006;-75
2022/05/30 01:36:52;;;;;;;3.03;1.10;;;;;;;8.37;66.17;100214.34;6135059;23;20494;-75
2022/05/30 01:39:17;;;;;;;3.63;1.10;;;;;;;8.32;66.49;100206.09;6134597;23;20009;-75
2022/05/30 01:41:43;;;;;;;2.47;1.30;;;;;;;8.34;67.47;100214.13;6159480;23;20025;-75
2022/05/30 01:44:09;;;;;;;4.20;1.55;;;;;;;8.27;66.71;100209.72;6134704;23;20047;-75
2022/05/30 01:46:34;;;;;;;3.30;1.05;;;;;;;8.27;66.47;100206.97;6184755;23;20009;-75
2022/05/30 01:49:00;;;;;;;4.70;1.08;;;;;;;8.28;66.27;100211.38;6159138;23;20013;-75
2022/05/30 01:51:25;;;;;;;3.08;1.13;;;;;;;8.27;65.98;100211.66;6134962;23;20017;-75
2022/05/30 01:53:51;;;;;;;2.58;1.23;;;;;;;8.25;65.83;100208.38;6134318;23;20088;-75
2022/05/30 01:56:17;;;;;;;2.72;1.20;;;;;;;8.20;65.78;100206.44;6134854;23;20006;-75
2022/05/30 01:58:43;;;;;;;3.22;1.10;;;;;;;8.17;65.95;100198.72;6158874;23;20009;-75
2022/05/30 02:01:21;;;;;;;2.50;1.10;;;;;;;8.19;66.43;100198.41;6110218;23;20013;-75
2022/05/30 02:03:47;;;;;;;1.85;0.93;;;;;;;8.15;66.69;100202.88;6134916;23;20052;-75
2022/05/30 02:06:13;;;;;;;5.45;1.77;;;;;;;8.08;67.03;100194.91;6134485;23;20009;-75
2022/05/30 02:08:38;;;;;;;3.15;1.40;;;;;;;8.05;67.10;100196.31;6134334;23;20009;-75
2022/05/30 02:11:04;;;;;;;1.92;1.20;;;;;;;8.03;66.64;100192.16;6134678;23;20097;-75
2022/05/30 02:13:30;;;;;;;3.80;1.40;;;;;;;8.09;66.62;100193.78;6134686;23;20006;-75
2022/05/30 02:18:40;;;;;;;2.47;1.20;;;;;;;8.00;66.47;100187.22;6159751;23;20425;-75
2022/05/30 02:21:05;;;;;;;2.60;1.23;;;;;;;7.93;66.93;100192.22;6134692;23;20013;-75
2022/05/30 02:23:32;;;;;;;2.08;1.20;;;;;;;7.91;67.03;100194.41;6134548;23;20005;-76
2022/05/30 02:25:57;;;;;;;5.18;1.40;;;;;;;7.94;67.17;100193.84;6134341;23;20012;-76
2022/05/30 02:28:23;;;;;;;3.67;1.40;;;;;;;7.87;67.26;100190.59;6159179;23;20619;-76
2022/05/30 02:30:49;;;;;;;4.07;1.20;;;;;;;7.89;67.58;100191.97;6134402;23;20009;-75
2022/05/30 02:38:44;;;;;;;2.30;1.10;;;;;;;7.74;67.05;100192.84;6159044;23;20415;-75
2022/05/30 02:41:09;;;;;;;5.38;1.45;;;;;;;7.72;67.37;100197.84;6160009;23;20016;-75
2022/05/30 02:43:35;;;;;;;4.90;1.48;;;;;;;7.66;68.05;100193.44;6134304;23;20002;-74
2022/05/30 02:46:00;;;;;;;2.38;1.25;;;;;;;7.68;68.10;100182.09;6158977;23;20006;-75
2022/05/30 02:48:26;;;;;;;3.88;1.20;;;;;;;7.66;67.97;100190.69;6158704;23;20052;-75
2022/05/30 02:50:51;;;;;;;4.75;1.25;;;;;;;7.67;68.08;100195.09;6134168;23;20052;-75
2022/05/30 02:53:17;;;;;;;2.15;1.40;;;;;;;7.62;67.89;100197.88;6134155;23;20349;-75
2022/05/30 02:55:43;;;;;;;3.78;1.45;;;;;;;7.61;68.15;100202.56;6158747;23;20379;-75
2022/05/30 02:58:08;;;;;;;3.15;1.30;;;;;;;7.58;68.44;100199.56;6160749;23;20021;-75
2022/05/30 03:00:34;;;;;;;2.35;1.15;;;;;;;7.57;68.04;100200.66;6134328;23;20020;-75
2022/05/30 03:03:00;;;;;;;4.80;1.25;;;;;;;7.54;68.06;100192.94;6085717;23;20008;-75
2022/05/30 03:05:25;;;;;;;2.92;1.25;;;;;;;7.52;68.60;100186.84;6109752;23;20064;-75
2022/05/30 03:07:51;;;;;;;3.20;1.40;;;;;;;7.51;68.49;100187.97;6158876;23;20006;-75
2022/05/30 03:10:17;;;;;;;2.95;1.40;;;;;;;7.52;68.07;100195.13;6133844;23;20060;-75
2022/05/30 03:12:42;;;;;;;4.50;1.33;;;;;;;7.48;68.23;100196.81;6134059;23;20010;-75
2022/05/30 03:15:08;;;;;;;3.75;1.45;;;;;;;7.43;68.14;100192.13;6133994;23;20335;-75
2022/05/30 03:17:34;;;;;;;2.30;1.30;;;;;;;7.43;67.92;100189.38;6158564;23;20012;-75
2022/05/30 03:19:59;;;;;;;5.70;1.42;;;;;;;7.36;67.92;100195.19;6158518;23;20056;-75
2022/05/30 03:22:25;;;;;;;4.80;1.88;;;;;;;7.39;68.48;100189.09;6133724;23;20006;-75
2022/05/30 03:24:50;;;;;;;3.35;1.38;;;;;;;7.31;68.30;100186.91;6158448;23;20351;-75
2022/05/30 03:27:16;;;;;;;3.55;1.60;;;;;;;7.30;68.07;100189.94;6133983;23;20044;-75
2022/05/30 03:29:42;;;;;;;3.45;1.45;;;;;;;7.29;68.77;100189.13;6133987;23;20009;-75
2022/05/30 03:32:08;;;;;;;3.63;1.50;;;;;;;7.27;68.50;100184.97;6134049;23;20006;-75
2022/05/30 03:34:34;;;;;;;4.18;1.50;;;;;;;7.26;68.08;100183.34;6158229;23;20005;-75
2022/05/30 03:36:59;;;;;;;4.43;1.70;;;;;;;7.23;68.25;100184.72;6109436;23;20005;-75
2022/05/30 03:39:25;;;;;;;4.07;1.80;;;;;;;7.20;68.02;100182.53;6158168;23;20474;-75
2022/05/30 03:41:50;;;;;;;1.50;1.20;;;;;;;7.19;68.12;100188.31;6158643;23;20018;-75
2022/05/30 03:44:16;;;;;;;2.45;1.48;;;;;;;7.20;67.88;100178.94;6109413;23;20076;-75
2022/05/30 03:46:42;;;;;;;4.35;1.48;;;;;;;7.15;67.95;100188.88;6159842;23;20005;-75
2022/05/30 03:49:07;;;;;;;2.92;1.50;;;;;;;7.12;68.24;100185.84;6158143;23;20009;-75
2022/05/30 03:51:33;;;;;;;3.00;1.80;;;;;;;7.13;68.42;100184.72;6109206;23;20033;-75
2022/05/30 03:53:59;;;;;;;5.40;1.50;;;;;;;7.08;68.55;100195.81;6132903;23;20037;-75
2022/05/30 03:56:24;;;;;;;2.53;1.45;;;;;;;7.06;68.59;100184.22;6158084;23;20012;-75
2022/05/30 03:58:50;;;;;;;4.13;1.70;;;;;;;7.02;68.77;100194.16;6134096;23;20021;-75
2022/05/30 04:01:16;;;;;;;3.58;1.60;;;;;;;7.00;69.10;100196.38;6158049;23;20005;-75
2022/05/30 04:03:41;;;;;;;2.40;1.25;;;;;;;6.98;69.07;100193.88;6109201;23;20002;-75
2022/05/30 04:06:07;;;;;;;4.55;2.15;;;;;;;6.98;69.66;100193.88;6157816;23;20012;-75
2022/05/30 04:08:33;;;;;;;3.00;1.30;;;;;;;6.89;70.04;100196.38;6133480;23;20390;-75
2022/05/30 04:10:59;;;;;;;3.92;1.90;;;;;;;6.94;70.98;100199.13;6133677;23;20013;-75
2022/05/30 04:13:25;;;;;;;3.50;1.60;;;;;;;6.93;70.48;100202.16;6133408;23;20048;-75
2022/05/30 04:15:50;;;;;;;6.07;1.88;;;;;;;6.97;69.98;100207.97;6133322;23;20001;-75
2022/05/30 04:18:16;;;;;;;6.40;1.60;;;;;;;6.94;69.97;100201.06;6133708;23;20010;-75
2022/05/30 04:20:41;;;;;;;5.80;1.83;;;;;;;6.96;70.05;100203.53;6133295;23;20025;-75
2022/05/30 04:23:07;;;;;;;4.65;2.03;;;;;;;6.96;70.42;100206.31;6133328;23;20013;-75
2022/05/30 04:25:33;;;;;;;2.35;1.70;;;;;;;6.93;71.15;100204.91;6133532;23;20060;-75
2022/05/30 04:27:58;;;;;;;5.03;1.83;;;;;;;6.94;71.18;100212.94;6134360;23;20048;-75
2022/05/30 04:30:24;;;;;;;4.63;1.98;;;;;;;6.99;71.45;100211.28;6162793;23;20009;-75
2022/05/30 04:32:50;;;;;;;5.03;2.05;;;;;;;7.00;71.54;100207.41;6138277;23;20506;-75
2022/05/30 04:35:15;;;;;;;4.05;2.17;;;;;;;6.98;71.70;100206.88;6137611;23;20005;-75
2022/05/30 04:37:41;;;;;;;5.10;2.60;;;;;;;7.00;73.21;100212.94;6187877;23;20016;-75
2022/05/30 04:40:09;;;;;;;3.38;2.13;;;;;;;7.08;72.80;100215.97;6137675;23;20044;-75
2022/05/30 04:42:35;;;;;;;4.38;1.70;;;;;;;7.16;73.06;100218.16;6163154;23;20088;-75
2022/05/30 04:45:00;;;;;;;5.43;2.30;;;;;;;7.21;76.55;100225.59;6138299;23;20005;-75
2022/05/30 04:47:26;;;;;;;4.93;3.10;;;;;;;7.25;78.28;100215.66;6113589;23;20001;-75
2022/05/30 04:49:52;;;;;;;4.65;3.35;;;;;;;7.28;80.52;100220.63;6137922;23;20013;-75
2022/05/30 04:52:18;;;;;;;7.68;3.50;;;;;;;7.37;80.25;100215.34;6138160;23;20045;-75
2022/05/30 04:54:43;;;;;;;7.90;4.22;;;;;;;7.45;84.58;100225.84;6162232;23;20020;-76
2022/05/30 04:57:09;;;;;;;7.43;3.25;;;;;;;7.64;81.50;100228.81;6138112;23;20453;-75
2022/05/30 04:59:40;;;;;;;11.13;4.18;;;;;;;7.72;87.46;100232.94;6162393;23;20008;-75
2022/05/30 05:02:06;;;;;;;9.27;4.78;;;;;;;7.84;88.09;100230.69;6113403;23;20418;-75
2022/05/30 05:04:32;;;;;;;8.18;4.28;;;;;;;7.95;89.13;100229.53;6162109;23;20028;-75
2022/05/30 05:06:57;;;;;;;7.07;3.00;;;;;;;8.08;87.09;100228.09;6187340;23;20012;-75
2022/05/30 05:09:31;;;;;;;5.93;2.83;;;;;;;8.22;83.54;100222.78;6162458;23;20005;-75
2022/05/30 05:11:56;;;;;;;7.10;3.45;;;;;;;8.40;84.66;100226.84;6162531;23;20001;-75
2022/05/30 05:14:22;;;;;;;6.70;3.17;;;;;;;8.54;84.98;100225.06;6162667;23;20063;-75
2022/05/30 05:16:47;;;;;;;6.57;3.15;;;;;;;8.68;83.52;100220.53;6162873;23;20013;-75
2022/05/30 05:19:13;;;;;;;5.90;3.65;;;;;;;8.85;87.08;100225.66;6187472;23;20013;-75
2022/05/30 05:21:39;;;;;;;4.20;2.75;;;;;;;9.01;83.12;100228.31;6137961;23;20008;-75
2022/05/30 05:24:06;;;;;;;6.20;3.38;;;;;;;9.19;80.24;100230.34;6162249;23;20322;-75
2022/05/30 05:26:32;;;;;;;5.22;2.80;;;;;;;9.35;81.30;100226.31;6162451;23;20327;-75
2022/05/30 05:28:57;;;;;;;5.47;2.35;;;;;;;9.51;77.98;100224.22;6137536;23;20013;-75
2022/05/30 05:31:34;;;;;;;12.50;3.45;;;;;;;9.70;81.56;100220.69;6157799;23;20021;-75
2022/05/30 05:34:00;;;;;;;7.32;3.20;;;;;;;9.87;81.26;100221.03;6109621;23;20506;-75
2022/05/30 05:36:28;;;;;;;5.20;3.25;;;;;;;10.04;80.28;100231.63;6108486;23;20009;-75
2022/05/30 05:38:54;;;;;;;6.95;2.83;;;;;;;10.22;76.58;100230.84;6083680;23;20017;-75
2022/05/30 05:41:21;;;;;;;5.93;2.78;;;;;;;10.39;76.71;100221.19;6133116;23;20049;-75
2022/05/30 05:43:47;;;;;;;7.45;2.90;;;;;;;10.56;76.17;100218.72;6108951;23;20089;-75
2022/05/30 05:46:17;;;;;;;6.53;2.63;;;;;;;10.73;76.25;100216.22;6108443;23;20017;-75
2022/05/30 05:48:43;;;;;;;9.27;3.75;;;;;;;10.93;76.75;100223.38;6108401;23;20008;-75
2022/05/30 05:51:08;;;;;;;6.95;3.78;;;;;;;11.10;76.81;100222.00;6132908;23;20009;-76
2022/05/30 05:53:34;;;;;;;7.68;4.00;;;;;;;11.23;77.09;100218.44;6181802;23;20014;-75
2022/05/30 05:56:09;;;;;;;7.05;3.20;;;;;;;11.40;74.01;100215.91;6108346;23;20016;-75
2022/05/30 05:58:35;;;;;;;7.55;3.20;;;;;;;11.63;74.27;100227.13;6108948;23;20005;-75
2022/05/30 06:01:08;;;;;;;6.00;2.72;;;;;;;11.86;71.34;100222.53;6132497;23;20013;-75
2022/05/30 06:03:34;;;;;;;6.32;3.22;;;;;;;12.07;71.89;100222.94;6084407;23;20046;-75
2022/05/30 06:05:59;;;;;;;6.45;2.50;;;;;;;12.23;69.14;100224.25;6132088;23;20010;-75
2022/05/30 06:08:25;;;;;;;6.78;3.17;;;;;;;12.41;70.75;100224.44;6158452;23;20010;-75
2022/05/30 06:11:05;;;;;;;7.00;2.78;;;;;;;12.57;70.00;100214.59;6084090;23;20016;-75
2022/05/30 06:13:36;;;;;;;7.93;3.00;;;;;;;12.81;69.95;100219.03;6136160;23;20009;-75
2022/05/30 06:16:04;;;;;;;8.30;2.90;;;;;;;13.02;69.45;100224.94;6108883;23;20002;-75
2022/05/30 06:18:30;;;;;;;8.68;2.70;;;;;;;13.21;68.70;100222.75;6134470;23;20101;-75
2022/05/30 06:20:59;;;;;;;5.45;3.17;;;;;;;13.36;69.00;100213.19;6110023;23;20013;-73
2022/05/30 06:23:24;;;;;;;8.80;2.60;;;;;;;13.51;67.95;100223.94;6160203;23;20007;-76
2022/05/30 06:25:50;;;;;;;6.28;3.28;;;;;;;13.66;68.70;100231.06;6160664;23;20017;-74
2022/05/30 06:28:15;;;;;;;8.10;3.45;;;;;;;13.78;68.86;100228.47;6133871;23;20379;-75
2022/05/30 06:30:40;;;;;;;8.10;3.28;;;;;;;13.89;68.42;100236.56;6160626;23;20010;-75
2022/05/30 06:33:06;;;;;;;7.45;3.22;;;;;;;13.94;68.04;100228.88;6160448;23;20010;-75
2022/05/30 06:35:31;;;;;;;8.60;3.50;;;;;;;14.11;66.75;100224.47;6160385;23;20430;-75
2022/05/30 06:37:57;;;;;;;7.82;2.92;;;;;;;14.15;66.10;100233.84;6085846;23;20013;-75
2022/05/30 06:40:22;;;;;;;8.57;3.67;;;;;;;14.23;67.30;100230.25;6085805;23;20009;-75
2022/05/30 06:42:48;;;;;;;8.05;3.67;;;;;;;14.28;66.32;100232.88;6109976;23;20005;-74
2022/05/30 06:45:13;;;;;;;5.60;3.05;;;;;;;14.38;66.05;100232.59;6134300;23;20050;-75
2022/05/30 06:47:39;;;;;;;6.43;2.92;;;;;;;14.45;65.89;100223.72;6109169;23;20015;-75
2022/05/30 06:50:05;;;;;;;7.63;3.40;;;;;;;14.43;65.35;100232.44;6109732;23;20009;-74
2022/05/30 06:52:30;;;;;;;8.35;3.25;;;;;;;14.59;64.99;100237.56;6109946;23;20411;-74
2022/05/30 06:54:56;;;;;;;9.02;3.33;;;;;;;14.70;65.53;100227.72;6061563;23;20100;-74
2022/05/30 07:00:06;;;;;;;6.72;2.60;;;;;;;14.98;64.33;100225.38;6117866;23;20424;-74
2022/05/30 07:02:31;;;;;;;5.90;2.97;;;;;;;15.02;63.44;100236.75;6085902;23;20013;-74
2022/05/30 07:04:57;;;;;;;5.20;2.47;;;;;;;15.15;63.15;100228.16;6109508;23;20012;-74
2022/05/30 07:07:22;;;;;;;6.78;2.80;;;;;;;15.33;62.46;100231.75;6109890;23;20017;-74
2022/05/30 07:09:48;;;;;;;8.20;2.72;;;;;;;15.38;62.52;100237.19;6109294;23;20388;-74
2022/05/30 07:12:13;;;;;;;6.60;3.30;;;;;;;15.45;62.55;100238.63;6085757;23;20014;-74
2022/05/30 07:14:39;;;;;;;7.80;3.20;;;;;;;15.49;63.08;100231.19;6133965;23;20009;-74
2022/05/30 07:17:06;;;;;;;4.93;2.78;;;;;;;15.60;61.73;100240.88;6086085;23;20013;-74
2022/05/30 07:19:32;;;;;;;4.75;2.47;;;;;;;15.78;60.89;100230.50;6110301;23;20024;-74
2022/05/30 07:21:58;;;;;;;5.07;2.83;;;;;;;15.92;60.70;100236.69;6085824;23;20013;-74
2022/05/30 07:24:24;;;;;;;7.38;2.63;;;;;;;16.07;60.08;100240.88;6133698;23;20387;-74
2022/05/30 07:26:49;;;;;;;3.72;2.45;;;;;;;16.16;59.85;100227.66;6109879;23;20021;-74
2022/05/30 07:29:15;;;;;;;6.13;2.67;;;;;;;16.31;59.15;100229.88;6109290;23;20021;-75
2022/05/30 07:31:41;;;;;;;7.03;2.70;;;;;;;16.42;59.38;100224.69;6134250;23;20009;-74
2022/05/30 07:34:06;;;;;;;5.60;2.75;;;;;;;16.47;58.64;100232.09;6085748;23;20070;-74
2022/05/30 07:36:32;;;;;;;5.70;2.30;;;;;;;16.56;58.41;100235.63;6109563;23;20012;-75
2022/05/30 07:38:58;;;;;;;5.57;2.33;;;;;;;16.71;57.87;100229.41;6108453;23;20006;-74
2022/05/30 07:41:25;;;;;;;5.45;2.78;;;;;;;16.78;58.11;100231.69;6085639;23;20015;-74
2022/05/30 07:43:54;;;;;;;3.88;2.30;;;;;;;16.91;57.43;100218.53;6134126;23;20001;-74
2022/05/30 07:46:25;;;;;;;8.00;2.47;;;;;;;17.13;57.35;100229.41;6085186;23;20538;-75
2022/05/30 07:48:50;;;;;;;5.32;2.45;;;;;;;17.24;56.40;100223.34;6110203;23;20076;-75
2022/05/30 07:51:16;;;;;;;6.72;2.20;;;;;;;17.45;55.13;100226.09;6133644;23;20009;-75
2022/05/30 07:53:42;;;;;;;6.72;1.80;;;;;;;17.59;54.53;100226.59;6159105;23;20009;-75
2022/05/30 07:56:09;;;;;;;5.30;1.83;;;;;;;17.80;54.34;100220.91;6133876;23;20005;-75
2022/05/30 07:58:36;;;;;;;4.00;1.80;;;;;;;17.86;54.04;100228.78;6085735;23;20010;-75
2022/05/30 08:01:02;;;;;;;3.70;1.95;;;;;;;18.05;52.81;100228.22;6085747;23;20005;-75
2022/05/30 08:03:28;;;;;;;3.72;1.42;;;;;;;18.27;53.31;100223.25;6085197;23;20005;-75
2022/05/30 08:06:13;;;;;;;3.85;2.00;;;;;;;18.35;51.99;100221.50;6109055;23;20006;-75
2022/05/30 08:08:42;;;;;;;5.32;1.85;;;;;;;18.41;51.81;100220.88;6087076;23;20210;-75
2022/05/30 08:11:08;;;;;;;3.28;1.90;;;;;;;18.52;50.99;100221.22;6084349;23;20010;-75
2022/05/30 08:13:34;;;;;;;7.50;2.15;;;;;;;18.63;51.45;100215.94;6109005;23;20006;-74
2022/05/30 08:15:59;;;;;;;2.65;1.70;;;;;;;18.79;50.86;100216.84;6182854;23;20013;-74
2022/05/30 08:18:25;;;;;;;3.75;1.27;;;;;;;18.98;50.10;100208.56;6133860;23;20006;-74
2022/05/30 08:20:50;;;;;;;5.85;1.65;;;;;;;19.07;49.37;100210.41;6109081;23;20084;-74
2022/05/30 08:23:17;;;;;;;3.88;1.50;;;;;;;19.18;48.99;100206.72;6157690;23;20052;-73
2022/05/30 08:25:43;;;;;;;4.25;1.40;;;;;;;19.30;49.16;100208.63;6085546;23;20044;-74
2022/05/30 08:28:08;;;;;;;3.55;1.45;;;;;;;19.35;49.37;100211.19;6108967;23;20010;-74
2022/05/30 08:30:34;;;;;;;3.75;1.30;;;;;;;19.54;47.95;100209.69;6084931;23;20014;-74
2022/05/30 08:32:59;;;;;;;2.88;1.40;;;;;;;19.63;47.58;100201.88;6085031;23;20017;-74
2022/05/30 08:35:25;;;;;;;5.28;1.75;;;;;;;19.76;47.98;100209.09;6108676;23;20462;-74
2022/05/30 08:37:57;;;;;;;3.92;1.50;;;;;;;19.86;47.37;100207.72;6108779;23;20064;-74
2022/05/30 08:43:32;;;;;;;4.45;1.50;;;;;;;20.12;46.36;100192.25;6116925;23;20010;-74
2022/05/30 08:46:24;;;;;;;4.82;1.60;;;;;;;20.24;46.35;100198.56;6133912;23;20446;-74
2022/05/30 08:49:22;;;;;;;4.05;1.20;;;;;;;20.39;45.91;100198.91;6101564;23;20014;-74
2022/05/30 08:52:03;;;;;;;3.25;1.25;;;;;;;20.46;45.89;100199.88;6120611;23;20076;-74
2022/05/30 08:55:00;;;;;;;5.18;1.50;;;;;;;20.61;45.24;100192.56;6158728;23;20013;-74
2022/05/30 08:57:37;;;;;;;3.90;1.40;;;;;;;20.75;44.67;100187.25;6110590;23;20522;-74
2022/05/30 09:00:10;;;;;;;4.40;1.38;;;;;;;20.89;44.67;100191.53;6134327;23;20062;-74
2022/05/30 09:02:37;;;;;;;3.63;1.30;;;;;;;21.04;44.64;100187.84;6133144;23;20029;-74
2022/05/30 09:05:06;;;;;;;3.47;1.30;;;;;;;21.06;43.75;100182.66;6132434;23;20316;-74
2022/05/30 09:07:41;;;;;;;3.63;1.45;;;;;;;21.25;44.31;100183.78;6133194;23;20384;-74
2022/05/30 09:10:27;;;;;;;4.25;1.35;;;;;;;21.38;43.87;100180.44;6109971;23;20013;-74
2022/05/30 09:13:15;;;;;;;4.10;1.20;;;;;;;21.51;43.29;100175.44;6137054;23;20058;-74
2022/05/30 09:15:43;;;;;;;4.50;1.60;;;;;;;21.49;42.17;100183.47;6136386;23;20006;-74
2022/05/30 09:18:20;;;;;;;4.25;1.70;;;;;;;21.73;41.92;100172.97;6084881;23;20014;-74
2022/05/30 09:20:46;;;;;;;5.15;1.50;;;;;;;21.96;41.93;100182.25;6109794;23;20415;-74
2022/05/30 09:23:12;;;;;;;3.42;1.65;;;;;;;22.09;42.35;100175.19;6132648;23;20013;-73
2022/05/30 09:25:56;;;;;;;3.40;1.55;;;;;;;22.26;42.18;100173.88;6133213;23;20052;-74
2022/05/30 09:28:28;;;;;;;6.65;1.30;;;;;;;22.41;40.81;100180.53;6132760;23;20021;-74
2022/05/30 09:31:31;;;;;;;2.60;1.20;;;;;;;22.64;40.84;100177.59;6109229;23;20013;-74
2022/05/30 09:33:58;;;;;;;2.45;0.90;;;;;;;22.78;39.27;100171.31;6133007;23;20010;-74
2022/05/30 09:36:28;;;;;;;4.82;1.10;;;;;;;22.95;38.81;100170.75;6108761;23;20064;-75
2022/05/30 09:39:04;;;;;;;2.50;1.10;;;;;;;23.18;38.97;100178.31;6084362;23;20009;-74
2022/05/30 09:41:38;;;;;;;3.22;0.75;;;;;;;23.36;38.94;100170.78;6108536;23;20017;-74
2022/05/30 09:44:25;;;;;;;1.63;0.77;;;;;;;23.57;38.29;100155.22;6158961;23;20025;-74
2022/05/30 09:46:51;;;;;;;1.83;0.70;;;;;;;23.75;38.95;100161.06;6158572;23;20021;-74
2022/05/30 09:49:40;;;;;;;2.47;0.85;;;;;;;23.83;37.35;100152.22;6108398;23;20308;-74
2022/05/30 09:52:29;;;;;;;2.08;0.80;;;;;;;24.11;37.65;100162.13;6134792;23;20017;-74
2022/05/30 09:54:54;;;;;;;2.35;0.70;;;;;;;24.30;37.90;100164.69;6125081;23;20068;-74
2022/05/30 09:57:24;;;;;;;2.28;0.65;;;;;;;24.43;35.53;100164.34;6110504;23;20009;-74
2022/05/30 09:59:52;;;;;;;3.55;0.82;;;;;;;24.43;35.08;100162.38;6111038;23;20623;-74
2022/05/30 10:02:31;;;;;;;3.78;0.82;;;;;;;24.38;34.65;100151.38;6135172;23;20005;-74
2022/05/30 10:05:27;;;;;;;3.13;0.80;;;;;;;24.21;34.79;100144.38;6134462;23;20013;-71
2022/05/30 10:07:58;;;;;;;2.42;0.45;;;;;;;24.07;34.99;100155.63;6135779;23;20018;-72
2022/05/30 10:10:25;;;;;;;1.45;0.60;;;;;;;23.80;35.75;100143.69;6110596;23;20013;-71
2022/05/30 10:13:00;;;;;;;2.20;0.63;;;;;;;23.75;35.27;100149.72;6086640;23;20332;-72
2022/05/30 10:15:32;;;;;;;3.70;0.80;;;;;;;23.71;35.58;100144.03;6133202;23;20077;-71
2022/05/30 10:18:13;;;;;;;1.38;0.70;;;;;;;23.69;35.28;100152.06;6134709;23;20037;-72
2022/05/30 10:21:22;;;;;;;3.33;0.70;;;;;;;23.81;35.53;100151.78;6109702;23;20494;-71
2022/05/30 10:30:20;;;;;;;4.32;0.80;;;;;;;23.80;34.86;100155.84;6163433;23;20073;-71
2022/05/30 10:33:06;;;;;;;2.83;0.80;;;;;;;23.75;35.29;100156.19;6134186;23;20010;-72
2022/05/30 10:35:43;;;;;;;0.98;0.50;;;;;;;23.62;35.41;100152.00;6160228;23;20335;-71
2022/05/30 10:38:16;;;;;;;1.58;0.70;;;;;;;23.41;34.22;100147.78;6135294;23;20017;-71
2022/05/30 10:40:49;;;;;;;1.90;0.75;;;;;;;23.39;35.66;100144.50;6086898;23;20009;-71
2022/05/30 10:43:35;;;;;;;2.35;0.70;;;;;;;23.32;35.63;100143.66;6134591;23;20013;-72
2022/05/30 10:46:04;;;;;;;2.20;0.80;;;;;;;23.40;35.98;100142.47;6160266;23;20013;-71
2022/05/30 10:48:34;;;;;;;1.50;0.43;;;;;;;23.49;36.71;100145.81;6110177;23;20014;-71
2022/05/30 10:51:08;;;;;;;3.45;0.60;;;;;;;23.59;36.35;100144.28;6134858;23;20020;-71
2022/05/30 10:54:04;;;;;;;1.95;0.57;;;;;;;23.75;34.72;100146.88;6134430;23;20523;-71
2022/05/30 10:56:31;;;;;;;1.15;0.50;;;;;;;23.90;35.18;100139.28;6160243;23;20020;-72
2022/05/30 10:59:34;;;;;;;2.20;0.57;;;;;;;24.01;34.49;100131.66;6109902;23;20017;-71
2022/05/30 11:02:21;;;;;;;2.75;0.60;;;;;;;24.19;34.01;100146.78;6091672;23;20013;-71
2022/05/30 11:05:01;;;;;;;2.33;0.70;;;;;;;24.35;33.50;100142.81;6133725;23;20100;-71
2022/05/30 11:07:47;;;;;;;1.50;0.60;;;;;;;24.50;32.64;100138.88;6160157;23;20009;-72
2022/05/30 11:10:19;;;;;;;3.15;0.80;;;;;;;24.62;33.42;100137.72;6133570;23;20016;-71
2022/05/30 11:12:45;;;;;;;3.38;0.55;;;;;;;24.73;32.71;100142.22;6109753;23;20048;-72
2022/05/30 11:15:25;;;;;;;2.63;0.60;;;;;;;24.80;31.94;100137.81;6085806;23;20013;-71
2022/05/30 11:18:01;;;;;;;1.92;0.75;;;;;;;25.01;33.08;100135.03;6134203;23;20013;-71
2022/05/30 11:20:33;;;;;;;2.67;0.70;;;;;;;25.06;33.43;100140.31;6087021;23;20498;-71
2022/05/30 11:22:59;;;;;;;2.28;0.70;;;;;;;25.13;31.87;100142.34;6109593;23;20025;-72
2022/05/30 11:26:02;;;;;;;1.63;0.40;;;;;;;25.29;32.70;100137.13;6109573;23;20010;-71
2022/05/30 11:29:15;;;;;;;3.45;0.88;;;;;;;25.42;32.25;100134.72;6129090;23;20059;-71
2022/05/30 11:31:55;;;;;;;2.50;0.60;;;;;;;25.62;31.40;100132.31;6122500;23;20041;-71
2022/05/30 11:34:45;;;;;;;1.88;0.50;;;;;;;25.72;31.51;100125.81;6153370;23;20040;-71
2022/05/30 11:37:13;;;;;;;2.22;0.70;;;;;;;25.88;31.65;100119.72;6130381;23;20018;-71
2022/05/30 11:39:55;;;;;;;2.60;0.60;;;;;;;25.91;31.71;100121.78;6128799;23;20010;-71
2022/05/30 11:42:33;;;;;;;1.52;0.45;;;;;;;25.89;30.75;100117.69;6127654;23;20068;-71
2022/05/30 11:45:00;;;;;;;1.90;0.60;;;;;;;25.94;30.70;100129.47;6129274;23;20006;-71
2022/05/30 11:47:32;;;;;;;1.92;0.63;;;;;;;25.94;30.41;100123.78;6127774;23;20121;-71
2022/05/30 11:50:16;;;;;;;1.48;0.60;;;;;;;25.89;29.85;100124.19;6153119;23;20010;-71
2022/05/30 11:53:02;;;;;;;1.15;0.52;;;;;;;25.80;30.07;100124.59;6130123;23;20017;-71
2022/05/30 11:55:35;;;;;;;1.25;0.40;;;;;;;25.78;29.97;100112.00;6130218;23;20084;-71
2022/05/30 11:58:09;;;;;;;3.35;0.70;;;;;;;25.67;30.25;100119.72;6153344;23;20072;-71
2022/05/30 12:00:43;;;;;;;1.83;0.50;;;;;;;25.47;30.14;100119.31;6178567;23;20021;-71
2022/05/30 12:03:30;;;;;;;1.23;0.52;;;;;;;25.58;31.50;100117.28;6127422;23;20462;-71
2022/05/30 12:06:09;;;;;;;2.92;0.77;;;;;;;25.43;30.64;100116.44;6103810;23;20010;-71
2022/05/30 12:08:56;;;;;;;0.85;0.47;;;;;;;25.29;30.47;100127.81;6128374;23;20009;-71